Time;durP1;ratioP1;P1;durP2;ratioP2;P2;SDS_P1;SDS_P2;PMS_P1;PMS_P2;Temp;Humidity;BMP_temperature;BMP_pressure;BME280_temperature;BME280_humidity;BME280_pressure;Samples;Min_cycle;Max_cycle;Signal;HPM_P1;HPM_P2
2022/12/13 00:01:49;;;;;;;6.90;6.20;;;18.30;48.60;;;;;;5110624;27;44540;-60
2022/12/13 00:04:18;;;;;;;7.20;6.50;;;18.30;48.60;;;;;;5118382;27;43508;-59
2022/12/13 00:06:46;;;;;;;6.75;6.00;;;18.30;48.50;;;;;;5121921;27;43323;-60
2022/12/13 00:09:17;;;;;;;6.43;5.80;;;18.30;48.50;;;;;;5121353;27;43536;-60
2022/12/13 00:11:45;;;;;;;7.22;6.53;;;18.30;48.60;;;;;;5121154;27;44973;-60
2022/12/13 00:14:13;;;;;;;6.88;6.18;;;18.20;48.70;;;;;;5121107;27;43380;-60
2022/12/13 00:16:44;;;;;;;7.10;6.40;;;18.20;48.60;;;;;;5121432;27;43417;-60
2022/12/13 00:19:12;;;;;;;7.30;6.50;;;18.30;49.20;;;;;;5111117;27;43400;-60
2022/12/13 00:21:40;;;;;;;7.25;6.55;;;18.20;48.60;;;;;;5116355;27;43780;-60
2022/12/13 00:24:08;;;;;;;6.75;6.15;;;18.20;48.70;;;;;;5120039;27;43422;-60
2022/12/13 00:26:35;;;;;;;7.05;6.35;;;18.20;48.70;;;;;;5103039;27;43456;-59
2022/12/13 00:29:05;;;;;;;7.60;6.85;;;18.20;48.60;;;;;;5122024;27;43612;-60
2022/12/13 00:31:33;;;;;;;6.65;5.95;;;18.20;48.70;;;;;;5121142;27;43863;-60
2022/12/13 00:34:21;;;;;;;7.82;6.35;;;18.10;48.60;;;;;;5121419;27;43793;-60
2022/12/13 00:36:48;;;;;;;6.93;6.22;;;18.10;48.70;;;;;;5121398;27;43472;-60
2022/12/13 00:39:17;;;;;;;6.95;6.30;;;18.10;48.80;;;;;;5121460;27;43478;-60
2022/12/13 00:41:46;;;;;;;7.78;7.00;;;18.00;48.70;;;;;;5120873;27;44044;-59
2022/12/13 00:44:13;;;;;;;6.68;5.97;;;18.00;49.30;;;;;;5109455;27;44044;-60
2022/12/13 00:46:41;;;;;;;7.95;6.93;;;18.00;48.70;;;;;;5103257;27;43530;-59
2022/12/13 00:49:10;;;;;;;7.07;6.38;;;18.00;48.70;;;;;;5121708;27;43576;-59
2022/12/13 00:51:38;;;;;;;7.40;6.70;;;18.00;48.70;;;;;;5120235;27;43795;-59
2022/12/13 00:54:06;;;;;;;6.82;6.20;;;17.90;48.80;;;;;;5120217;27;43985;-60
2022/12/13 00:56:33;;;;;;;6.88;6.20;;;17.90;48.80;;;;;;5121167;27;43506;-59
2022/12/13 00:59:01;;;;;;;6.97;6.30;;;17.90;48.70;;;;;;5123979;27;43422;-60
2022/12/13 01:01:31;;;;;;;6.88;6.28;;;17.90;48.70;;;;;;5123934;27;43809;-59
2022/12/13 01:04:01;;;;;;;7.20;6.50;;;17.90;48.90;;;;;;5125239;27;43552;-60
2022/12/13 01:06:38;;;;;;;7.60;6.43;;;17.90;48.90;;;;;;5124100;27;43320;-60
2022/12/13 01:09:21;;;;;;;7.10;6.40;;;17.80;48.80;;;;;;5124140;27;43532;-59
2022/12/13 01:11:49;;;;;;;7.15;6.45;;;17.80;48.90;;;;;;5124045;27;44793;-59
2022/12/13 01:14:18;;;;;;;6.85;6.15;;;17.80;48.90;;;;;;5124380;27;43401;-59
2022/12/13 01:16:45;;;;;;;7.25;6.53;;;17.80;48.90;;;;;;5112884;27;43423;-60
2022/12/13 01:19:13;;;;;;;7.28;6.57;;;17.80;48.90;;;;;;5107843;27;43466;-59
2022/12/13 01:21:40;;;;;;;7.13;6.43;;;17.80;49.00;;;;;;5124545;27;44076;-60
2022/12/13 01:24:08;;;;;;;6.68;6.00;;;17.70;49.00;;;;;;5124462;27;43511;-59
2022/12/13 01:26:35;;;;;;;7.28;6.25;;;17.70;49.00;;;;;;5124298;27;43429;-59
2022/12/13 01:29:04;;;;;;;7.25;6.55;;;17.70;49.00;;;;;;5123570;27;43517;-59
2022/12/13 01:31:32;;;;;;;6.82;6.00;;;17.70;49.00;;;;;;5124469;27;45036;-59
2022/12/13 01:34:09;;;;;;;6.90;6.20;;;17.70;49.00;;;;;;5124508;27;43475;-59
2022/12/13 01:36:38;;;;;;;7.43;6.72;;;17.70;49.00;;;;;;5123044;27;43466;-59
2022/12/13 01:39:08;;;;;;;6.90;6.20;;;17.60;48.90;;;;;;5124464;27;43484;-59
2022/12/13 01:41:46;;;;;;;7.35;6.63;;;17.60;48.90;;;;;;5123806;27;44015;-59
2022/12/13 01:44:51;;;;;;;7.20;6.55;;;17.60;48.90;;;;;;5124051;27;43384;-59
2022/12/13 01:47:31;;;;;;;7.20;6.50;;;17.60;48.90;;;;;;5100023;27;43355;-59
2022/12/13 01:50:19;;;;;;;8.65;7.00;;;17.60;49.00;;;;;;5124332;27;43491;-59
2022/12/13 01:52:49;;;;;;;7.10;6.40;;;17.60;48.90;;;;;;5093039;27;44056;-59
2022/12/13 01:55:19;;;;;;;7.20;6.50;;;17.60;49.00;;;;;;5114687;27;43512;-59
2022/12/13 01:57:50;;;;;;;6.90;6.22;;;17.50;49.00;;;;;;5123777;27;43424;-59
2022/12/13 02:00:18;;;;;;;7.28;6.50;;;17.50;49.00;;;;;;5096763;27;43611;-59
2022/12/13 02:02:47;;;;;;;6.97;6.28;;;17.50;48.90;;;;;;5123711;27;44782;-59
2022/12/13 02:05:27;;;;;;;7.13;6.28;;;17.40;48.90;;;;;;5123781;27;43368;-59
2022/12/13 02:07:57;;;;;;;6.43;5.82;;;17.40;49.00;;;;;;5123895;27;43473;-59
2022/12/13 02:10:26;;;;;;;6.80;6.18;;;17.40;48.90;;;;;;5123567;27;43469;-59
2022/12/13 02:12:54;;;;;;;6.82;6.00;;;17.40;48.90;;;;;;5123779;27;43918;-59
2022/12/13 02:15:22;;;;;;;6.65;6.05;;;17.40;48.90;;;;;;5123794;27;43377;-59
2022/12/13 02:18:04;;;;;;;7.07;6.47;;;17.40;49.00;;;;;;5113898;27;43593;-59
2022/12/13 02:21:03;;;;;;;7.30;6.60;;;17.40;49.00;;;;;;5096252;27;43470;-59
2022/12/13 02:23:57;;;;;;;6.50;5.90;;;17.40;49.10;;;;;;5123104;27;44052;-59
2022/12/13 02:26:37;;;;;;;6.82;6.20;;;17.30;49.00;;;;;;5095702;27;43976;-59
2022/12/13 02:29:38;;;;;;;7.15;6.45;;;17.30;49.10;;;;;;5122994;27;43481;-59
2022/12/13 02:32:19;;;;;;;6.70;6.07;;;17.30;49.10;;;;;;5100774;27;43418;-59
2022/12/13 02:34:58;;;;;;;6.63;6.03;;;17.20;49.00;;;;;;5123677;27;43749;-59
2022/12/13 02:37:28;;;;;;;7.30;6.60;;;17.30;49.10;;;;;;5122916;27;43811;-59
2022/12/13 02:40:04;;;;;;;6.82;6.22;;;17.20;49.00;;;;;;5123362;27;43480;-59
2022/12/13 02:42:39;;;;;;;6.40;5.80;;;17.30;49.10;;;;;;5123415;27;43592;-59
2022/12/13 02:45:15;;;;;;;7.72;6.40;;;17.20;49.00;;;;;;5123278;27;45320;-58
2022/12/13 02:47:51;;;;;;;6.63;6.00;;;17.20;49.00;;;;;;5123081;27;43447;-58
2022/12/13 02:50:22;;;;;;;6.78;6.07;;;17.20;49.10;;;;;;5095434;27;43441;-58
2022/12/13 02:52:51;;;;;;;6.65;6.05;;;17.20;49.10;;;;;;5123671;27;43433;-58
2022/12/13 02:55:18;;;;;;;6.75;6.15;;;17.20;49.10;;;;;;5122312;27;44063;-58
2022/12/13 02:57:51;;;;;;;6.75;6.15;;;17.20;49.10;;;;;;5123364;27;43438;-58
2022/12/13 03:00:34;;;;;;;6.78;6.18;;;17.10;49.00;;;;;;5123265;27;43385;-58
2022/12/13 03:03:31;;;;;;;6.90;6.13;;;17.10;49.00;;;;;;5124361;27;43384;-58
2022/12/13 03:06:29;;;;;;;6.47;5.88;;;17.10;49.00;;;;;;5058030;27;43739;-58
2022/12/13 03:09:09;;;;;;;6.05;5.47;;;17.10;49.00;;;;;;5123412;27;43908;-58
2022/12/13 03:14:45;;;;;;;7.00;6.30;;;17.10;49.10;;;;;;5094750;27;43505;-58
2022/12/13 03:17:17;;;;;;;6.47;5.72;;;17.00;49.00;;;;;;5120983;27;44678;-58
2022/12/13 03:19:46;;;;;;;6.32;5.72;;;17.00;49.00;;;;;;5110811;27;43407;-58
2022/12/13 03:22:13;;;;;;;6.00;5.40;;;17.00;49.00;;;;;;5123094;27;43409;-58
2022/12/13 03:24:40;;;;;;;6.55;5.95;;;17.00;49.00;;;;;;5123416;27;43599;-58
2022/12/13 03:27:08;;;;;;;7.43;5.53;;;17.00;49.00;;;;;;5090540;27;43780;-58
2022/12/13 03:29:36;;;;;;;6.45;5.85;;;17.00;49.00;;;;;;5123157;27;43382;-58
2022/12/13 03:32:04;;;;;;;5.82;5.32;;;17.00;49.00;;;;;;5123176;27;43485;-58
2022/12/13 03:34:31;;;;;;;6.40;5.80;;;17.00;49.00;;;;;;5122475;27;43895;-58
2022/12/13 03:37:11;;;;;;;6.60;5.97;;;17.00;49.00;;;;;;5094654;27;44957;-58
2022/12/13 03:39:38;;;;;;;5.90;5.40;;;17.00;49.00;;;;;;5122643;27;44141;-58
2022/12/13 03:42:06;;;;;;;6.05;5.55;;;17.00;49.00;;;;;;5123066;27;43350;-58
2022/12/13 03:44:33;;;;;;;6.60;6.00;;;16.90;49.00;;;;;;5119399;27;43422;-58
2022/12/13 03:47:01;;;;;;;6.07;5.57;;;16.90;48.90;;;;;;5092078;27;45000;-58
2022/12/13 03:49:29;;;;;;;6.40;5.80;;;16.90;49.60;;;;;;5102026;27;43486;-58
2022/12/13 03:52:02;;;;;;;6.10;5.60;;;16.90;49.00;;;;;;5123933;27;43393;-58
2022/12/13 03:54:29;;;;;;;6.20;5.60;;;16.90;49.10;;;;;;5113017;27;43502;-58
2022/12/13 03:56:57;;;;;;;6.30;5.70;;;16.90;49.00;;;;;;5123326;27;44009;-58
2022/12/13 03:59:24;;;;;;;6.93;6.25;;;16.90;49.00;;;;;;5122489;27;43396;-58
2022/12/13 04:01:52;;;;;;;6.25;5.68;;;16.90;49.00;;;;;;5122930;27;43398;-58
2022/12/13 04:04:19;;;;;;;6.35;5.70;;;16.90;48.90;;;;;;5121837;27;43442;-58
2022/12/13 04:06:47;;;;;;;6.70;6.00;;;16.80;48.90;;;;;;5122733;27;43780;-58
2022/12/13 04:09:14;;;;;;;6.60;6.00;;;16.80;48.90;;;;;;5097324;27;44037;-58
2022/12/13 04:14:28;;;;;;;6.93;6.22;;;16.80;48.90;;;;;;5091550;27;43474;-58
2022/12/13 04:16:55;;;;;;;6.82;6.20;;;16.80;48.90;;;;;;5123134;27;45120;-58
2022/12/13 04:19:23;;;;;;;6.65;5.97;;;16.70;48.90;;;;;;5122739;27;43487;-58
2022/12/13 04:21:53;;;;;;;6.45;5.85;;;16.70;48.90;;;;;;5121963;27;43390;-58
2022/12/13 04:24:21;;;;;;;6.72;6.07;;;16.70;48.90;;;;;;5122952;27;43477;-58
2022/12/13 04:27:00;;;;;;;6.97;6.30;;;16.70;48.90;;;;;;5104523;27;44175;-58
2022/12/13 04:29:28;;;;;;;5.93;5.40;;;16.70;48.90;;;;;;5104481;27;43950;-58
2022/12/13 04:32:04;;;;;;;6.22;5.63;;;16.70;48.90;;;;;;5122415;27;43374;-58
2022/12/13 04:34:51;;;;;;;6.65;6.05;;;16.70;48.90;;;;;;5126132;27;43560;-58
2022/12/13 04:37:27;;;;;;;6.20;5.60;;;16.70;49.00;;;;;;5125912;27;44993;-58
2022/12/13 04:39:56;;;;;;;6.10;5.50;;;16.70;49.00;;;;;;5094591;27;43979;-58
2022/12/13 04:42:27;;;;;;;6.07;5.47;;;16.60;48.90;;;;;;5126278;27;43361;-58
2022/12/13 04:44:54;;;;;;;6.35;5.75;;;16.60;48.90;;;;;;5126649;27;43431;-58
2022/12/13 04:47:22;;;;;;;6.15;5.65;;;16.60;48.90;;;;;;5093175;27;44706;-58
2022/12/13 04:49:49;;;;;;;6.28;5.68;;;16.60;48.90;;;;;;5125898;27;43860;-58
2022/12/13 04:52:17;;;;;;;6.07;5.53;;;16.60;49.00;;;;;;5108455;27;43399;-58
2022/12/13 04:54:49;;;;;;;5.63;5.13;;;16.60;49.00;;;;;;5099082;27;43395;-58
2022/12/13 04:57:22;;;;;;;6.10;5.50;;;16.60;49.00;;;;;;5120003;27;45032;-58
2022/12/13 04:59:51;;;;;;;5.97;5.38;;;16.50;48.90;;;;;;5111106;27;43944;-58
2022/12/13 05:02:18;;;;;;;6.40;5.80;;;16.60;49.00;;;;;;5120234;27;44112;-58
2022/12/13 05:04:51;;;;;;;6.88;5.57;;;16.60;49.00;;;;;;5111208;27;43484;-58
2022/12/13 05:07:22;;;;;;;6.10;5.50;;;16.50;49.00;;;;;;5124590;27;44732;-58
2022/12/13 05:09:50;;;;;;;5.82;5.32;;;16.50;49.60;;;;;;5125724;27;43696;-58
2022/12/13 05:12:17;;;;;;;6.80;5.80;;;16.50;49.00;;;;;;5126378;27;43377;-58
2022/12/13 05:14:50;;;;;;;5.72;5.22;;;16.50;49.00;;;;;;5125446;27;43897;-58
2022/12/13 05:17:18;;;;;;;5.88;5.38;;;16.50;49.00;;;;;;5092240;27;44660;-58
2022/12/13 05:19:47;;;;;;;6.30;5.65;;;16.50;49.00;;;;;;5105564;27;43883;-58
2022/12/13 05:22:17;;;;;;;5.72;5.13;;;16.50;49.00;;;;;;5118792;27;43474;-58
2022/12/13 05:24:47;;;;;;;5.65;5.15;;;16.40;49.00;;;;;;5125204;27;43369;-58
2022/12/13 05:27:15;;;;;;;5.70;5.20;;;16.40;49.00;;;;;;5125543;27;43783;-58
2022/12/13 05:29:54;;;;;;;6.03;5.45;;;16.40;49.00;;;;;;5126288;27;43412;-58
2022/12/13 05:32:37;;;;;;;6.05;5.50;;;16.40;49.00;;;;;;5106378;27;43395;-58
2022/12/13 05:35:14;;;;;;;6.07;5.47;;;16.40;49.00;;;;;;5096506;27;44032;-58
2022/12/13 05:37:51;;;;;;;5.72;5.22;;;16.40;49.00;;;;;;5108260;27;44890;-58
2022/12/13 05:40:24;;;;;;;;;;;16.40;49.00;;;;;;5125562;27;43660;-58
2022/12/13 05:42:52;;;;;;;6.18;5.57;;;16.30;49.00;;;;;;5094187;27;43415;-58
2022/12/13 05:45:29;;;;;;;5.75;5.25;;;16.30;49.10;;;;;;5109257;27;43473;-58
2022/12/13 05:47:57;;;;;;;5.65;5.15;;;16.30;49.00;;;;;;5107349;27;44871;-58
2022/12/13 05:50:25;;;;;;;5.50;5.00;;;16.30;49.00;;;;;;5124612;27;43981;-58
2022/12/13 05:52:52;;;;;;;5.47;4.97;;;16.30;49.00;;;;;;5126007;27;43968;-58
2022/12/13 05:55:20;;;;;;;6.07;5.47;;;16.30;49.00;;;;;;5107392;27;43459;-58
2022/12/13 05:57:47;;;;;;;5.80;5.20;;;16.30;49.00;;;;;;5125000;27;44947;-58
2022/12/13 06:00:18;;;;;;;5.97;5.47;;;16.30;49.00;;;;;;5123473;27;43395;-58
2022/12/13 06:02:55;;;;;;;5.70;5.20;;;16.30;49.00;;;;;;5096806;27;43447;-58
2022/12/13 06:05:30;;;;;;;5.93;5.40;;;16.30;49.00;;;;;;5104856;27;43561;-58
2022/12/13 06:07:59;;;;;;;6.13;5.53;;;16.30;49.20;;;;;;5110556;27;44673;-58
2022/12/13 06:10:27;;;;;;;6.07;5.57;;;16.20;49.10;;;;;;5098374;27;43458;-56
2022/12/13 06:13:03;;;;;;;5.75;5.25;;;16.20;49.10;;;;;;5113757;27;43392;-58
2022/12/13 06:15:51;;;;;;;5.13;4.72;;;16.20;49.20;;;;;;5113358;27;43503;-58
2022/12/13 06:18:31;;;;;;;5.40;4.85;;;16.20;49.20;;;;;;5109467;27;44687;-58
2022/12/13 06:21:01;;;;;;;5.82;5.32;;;16.20;49.20;;;;;;5103929;27;43562;-58
2022/12/13 06:23:30;;;;;;;5.53;5.03;;;16.20;49.20;;;;;;5116105;27;43413;-58
2022/12/13 06:25:57;;;;;;;5.70;5.20;;;16.20;49.10;;;;;;5115639;27;43593;-58
2022/12/13 06:28:25;;;;;;;5.75;5.15;;;16.20;49.10;;;;;;5109571;27;43992;-58
2022/12/13 06:30:52;;;;;;;6.38;5.18;;;16.20;49.10;;;;;;5102994;27;43452;-58
2022/12/13 06:33:20;;;;;;;6.10;5.30;;;16.20;49.10;;;;;;5112565;27;43490;-58
2022/12/13 06:35:51;;;;;;;5.72;5.20;;;16.20;49.10;;;;;;5108788;27;43474;-58
2022/12/13 06:38:18;;;;;;;6.03;5.53;;;16.20;49.10;;;;;;5103028;27;44725;-58
2022/12/13 06:41:13;;;;;;;5.25;4.75;;;16.20;49.10;;;;;;5089893;27;43491;-58
2022/12/13 06:43:42;;;;;;;6.03;5.30;;;16.20;49.10;;;;;;5110125;27;43369;-58
2022/12/13 06:46:10;;;;;;;5.47;4.97;;;16.20;49.10;;;;;;5099441;27;43461;-58
2022/12/13 06:48:41;;;;;;;6.30;5.70;;;16.20;49.00;;;;;;5103370;27;44717;-58
2022/12/13 06:51:09;;;;;;;5.53;4.93;;;16.20;49.10;;;;;;5113790;27;43525;-58
2022/12/13 06:53:38;;;;;;;5.60;5.07;;;16.20;49.00;;;;;;5116149;27;43424;-58
2022/12/13 06:56:11;;;;;;;5.53;5.03;;;16.20;49.00;;;;;;5099536;27;43483;-58
2022/12/13 06:58:40;;;;;;;5.60;5.05;;;16.20;49.00;;;;;;5093707;27;44315;-59
2022/12/13 07:01:09;;;;;;;6.00;5.40;;;16.20;49.00;;;;;;5112992;27;43662;-58
2022/12/13 07:03:41;;;;;;;5.82;5.32;;;16.20;48.90;;;;;;5104734;27;43474;-58
2022/12/13 07:06:20;;;;;;;6.07;5.47;;;16.20;48.90;;;;;;5109484;27;43617;-58
2022/12/13 07:08:53;;;;;;;5.70;5.20;;;16.20;48.90;;;;;;5101017;27;44706;-58
2022/12/13 07:11:25;;;;;;;5.60;5.10;;;16.20;48.90;;;;;;5089656;27;43455;-58
2022/12/13 07:13:53;;;;;;;6.35;5.72;;;16.20;49.00;;;;;;5104181;27;43455;-59
2022/12/13 07:16:22;;;;;;;6.70;5.50;;;16.20;49.00;;;;;;5089057;27;43432;-58
2022/12/13 07:18:54;;;;;;;6.10;5.50;;;16.30;49.00;;;;;;5091174;27;43931;-58
2022/12/13 07:21:28;;;;;;;5.97;5.38;;;16.30;49.00;;;;;;5111829;27;43479;-58
2022/12/13 07:23:56;;;;;;;5.68;5.18;;;16.40;49.00;;;;;;5104246;27;43439;-58
2022/12/13 07:26:24;;;;;;;5.85;5.35;;;16.40;48.90;;;;;;5114698;27;43900;-58
2022/12/13 07:28:53;;;;;;;5.95;5.45;;;16.50;48.90;;;;;;5120638;27;44993;-58
2022/12/13 07:31:23;;;;;;;5.93;5.43;;;16.50;48.70;;;;;;5081509;27;43977;-58
2022/12/13 07:33:51;;;;;;;6.07;5.47;;;16.60;48.70;;;;;;5103289;27;43458;-58
2022/12/13 07:36:21;;;;;;;6.03;5.43;;;16.70;48.40;;;;;;5110408;27;43500;-58
2022/12/13 07:38:53;;;;;;;6.22;5.63;;;16.80;48.40;;;;;;5113114;27;44055;-59
2022/12/13 07:41:23;;;;;;;5.95;5.25;;;16.90;48.30;;;;;;5106205;27;43474;-58
2022/12/13 07:43:51;;;;;;;9.15;5.85;;;16.90;48.30;;;;;;5070949;28;43472;-58
2022/12/13 07:46:22;;;;;;;6.25;5.30;;;17.00;48.60;;;;;;5092410;27;43582;-58
2022/12/13 07:49:01;;;;;;;7.10;4.95;;;17.10;48.10;;;;;;5112162;27;45033;-59
2022/12/13 07:51:29;;;;;;;6.97;5.65;;;17.10;48.10;;;;;;5104183;27;43533;-59
2022/12/13 07:53:57;;;;;;;7.13;6.15;;;17.20;48.10;;;;;;5104539;27;43474;-59
2022/12/13 07:56:24;;;;;;;6.63;5.38;;;17.30;48.00;;;;;;5112540;27;43529;-59
2022/12/13 07:58:51;;;;;;;7.30;5.93;;;17.40;48.00;;;;;;5108807;27;43809;-59
2022/12/13 08:01:19;;;;;;;7.32;5.47;;;17.40;47.80;;;;;;5102158;27;44011;-62
2022/12/13 08:03:47;;;;;;;7.38;5.60;;;17.50;48.00;;;;;;5116575;27;43430;-59
2022/12/13 08:06:15;;;;;;;5.65;5.10;;;17.70;47.70;;;;;;5114854;27;43470;-59
2022/12/13 08:08:42;;;;;;;6.00;5.40;;;17.80;47.60;;;;;;5110459;27;44802;-59
2022/12/13 08:11:12;;;;;;;6.68;5.60;;;17.90;47.50;;;;;;5103504;27;43534;-59
2022/12/13 08:13:40;;;;;;;6.18;5.57;;;18.10;47.30;;;;;;5100587;27;43399;-60
2022/12/13 08:16:09;;;;;;;5.43;4.93;;;18.30;47.40;;;;;;5114676;27;43518;-59
2022/12/13 08:18:59;;;;;;;5.70;5.20;;;18.40;47.20;;;;;;5108911;27;44032;-59
2022/12/13 08:21:40;;;;;;;6.82;5.13;;;18.60;47.20;;;;;;5103887;27;43433;-58
2022/12/13 08:24:29;;;;;;;7.75;5.75;;;18.70;46.70;;;;;;5099926;27;43427;-58
2022/12/13 08:27:02;;;;;;;6.38;5.47;;;18.90;46.70;;;;;;5117595;27;43430;-58
2022/12/13 08:29:31;;;;;;;5.88;5.28;;;19.00;46.30;;;;;;5108995;27;45286;-59
2022/12/13 08:32:10;;;;;;;6.25;5.65;;;19.10;46.40;;;;;;5106888;27;44009;-59
2022/12/13 08:34:37;;;;;;;7.20;5.35;;;19.30;46.20;;;;;;5117011;27;43470;-58
2022/12/13 08:37:05;;;;;;;5.93;5.32;;;19.40;46.10;;;;;;5108549;27;43478;-59
2022/12/13 08:39:35;;;;;;;7.75;5.47;;;19.50;45.90;;;;;;5104789;27;44778;-59
2022/12/13 08:42:07;;;;;;;8.18;5.55;;;19.70;45.80;;;;;;5120324;27;43979;-59
2022/12/13 08:44:50;;;;;;;6.28;5.38;;;19.80;45.50;;;;;;5113163;27;43482;-59
2022/12/13 08:47:24;;;;;;;6.30;5.35;;;19.90;45.20;;;;;;5107177;27;43711;-58
2022/12/13 08:49:54;;;;;;;5.47;4.97;;;20.00;45.40;;;;;;5109945;27;43763;-59
2022/12/13 08:52:31;;;;;;;7.18;5.07;;;20.10;45.50;;;;;;5106498;27;43533;-59
2022/12/13 08:55:09;;;;;;;5.07;4.57;;;20.10;45.70;;;;;;5108955;27;43404;-58
2022/12/13 08:57:37;;;;;;;6.00;5.05;;;20.20;45.60;;;;;;5099440;27;43501;-58
2022/12/13 09:00:06;;;;;;;6.07;4.82;;;20.30;45.60;;;;;;5108299;27;44098;-58
2022/12/13 09:02:34;;;;;;;6.03;4.97;;;20.30;45.50;;;;;;5097564;27;43376;-58
2022/12/13 09:05:06;;;;;;;5.00;4.47;;;20.40;45.60;;;;;;5102921;27;43489;-58
2022/12/13 09:07:35;;;;;;;6.68;4.68;;;20.40;45.50;;;;;;5094071;27;43612;-59
2022/12/13 09:10:03;;;;;;;5.47;4.53;;;20.40;45.40;;;;;;5116197;27;43802;-58
2022/12/13 09:12:53;;;;;;;8.25;5.05;;;20.50;45.40;;;;;;5105896;27;43434;-58
2022/12/13 09:15:31;;;;;;;5.20;4.32;;;20.50;45.30;;;;;;5082644;27;43381;-59
2022/12/13 09:18:02;;;;;;;6.03;5.35;;;20.50;45.40;;;;;;5092411;27;43544;-58
2022/12/13 09:20:34;;;;;;;5.55;4.68;;;20.50;45.40;;;;;;5108922;27;44871;-58
2022/12/13 09:23:09;;;;;;;6.18;4.85;;;20.50;45.40;;;;;;5102290;27;43452;-58
2022/12/13 09:25:57;;;;;;;5.03;4.50;;;20.60;45.40;;;;;;5105462;27;43397;-59
2022/12/13 09:28:33;;;;;;;5.18;4.68;;;20.60;45.30;;;;;;5114575;27;43420;-59
2022/12/13 09:31:10;;;;;;;6.18;4.82;;;20.70;45.20;;;;;;5101986;27;43915;-58
2022/12/13 09:33:37;;;;;;;5.30;4.80;;;20.80;45.20;;;;;;5115299;27;43972;-58
2022/12/13 09:36:11;;;;;;;5.40;4.90;;;20.80;45.10;;;;;;5101753;27;43442;-58
2022/12/13 09:38:39;;;;;;;5.15;4.65;;;20.80;45.10;;;;;;5115717;27;43505;-59
2022/12/13 09:41:25;;;;;;;5.28;4.78;;;20.90;45.10;;;;;;5113828;27;44697;-58
2022/12/13 09:44:00;;;;;;;5.47;4.82;;;20.90;45.10;;;;;;5106200;27;43446;-58
2022/12/13 09:46:42;;;;;;;4.72;4.32;;;20.80;45.10;;;;;;5118237;27;43417;-58
2022/12/13 09:49:36;;;;;;;5.45;4.85;;;20.80;45.10;;;;;;5115052;27;43497;-59
2022/12/13 09:52:10;;;;;;;5.22;4.72;;;20.80;45.10;;;;;;5107500;27;43795;-59
2022/12/13 09:54:53;;;;;;;4.88;4.47;;;20.70;45.10;;;;;;5103827;27;43933;-58
2022/12/13 09:57:29;;;;;;;5.57;5.03;;;20.70;45.40;;;;;;5098560;27;43492;-58
2022/12/13 10:00:22;;;;;;;5.28;4.30;;;20.70;45.40;;;;;;5108483;27;43534;-58
2022/12/13 10:02:52;;;;;;;4.95;4.50;;;20.70;45.40;;;;;;5099209;27;44809;-58
2022/12/13 10:05:30;;;;;;;5.90;4.60;;;20.60;45.50;;;;;;5118021;27;43969;-58
2022/12/13 10:08:19;;;;;;;4.80;4.30;;;20.60;45.50;;;;;;5110760;27;43429;-59
2022/12/13 10:10:54;;;;;;;5.10;4.60;;;20.60;45.60;;;;;;5084862;27;43465;-59
2022/12/13 10:13:52;;;;;;;6.03;4.90;;;20.60;45.60;;;;;;5104894;27;43916;-58
2022/12/13 10:16:35;;;;;;;5.85;4.70;;;20.60;45.50;;;;;;5100729;27;43549;-58
2022/12/13 10:19:17;;;;;;;5.20;4.70;;;20.60;45.60;;;;;;5106175;27;43481;-59
2022/12/13 10:21:57;;;;;;;5.43;4.93;;;20.60;45.60;;;;;;5105382;27;43486;-58
2022/12/13 10:24:50;;;;;;;6.22;4.97;;;20.60;45.60;;;;;;5118021;27;43812;-58
2022/12/13 10:27:37;;;;;;;5.82;4.55;;;20.70;45.50;;;;;;5103181;27;43415;-58
2022/12/13 10:30:07;;;;;;;5.65;5.07;;;20.70;45.40;;;;;;5106490;27;43435;-58
2022/12/13 10:33:04;;;;;;;5.43;4.60;;;20.70;45.60;;;;;;5120611;27;43508;-58
2022/12/13 10:35:40;;;;;;;6.15;4.63;;;20.80;45.50;;;;;;5108237;27;43883;-58
2022/12/13 10:38:07;;;;;;;4.85;4.45;;;20.80;45.50;;;;;;5109312;27;43407;-58
2022/12/13 10:40:39;;;;;;;5.95;4.88;;;20.80;45.40;;;;;;5104897;27;43521;-58
2022/12/13 10:43:25;;;;;;;5.38;4.82;;;20.90;45.50;;;;;;5114028;27;43545;-58
2022/12/13 10:45:58;;;;;;;4.90;4.50;;;20.90;45.40;;;;;;5106311;27;43932;-58
2022/12/13 10:48:47;;;;;;;5.45;4.57;;;21.00;45.30;;;;;;5095733;27;44033;-58
2022/12/13 10:51:18;;;;;;;5.25;4.75;;;21.10;45.30;;;;;;5103723;27;43457;-58
2022/12/13 10:53:48;;;;;;;;;;;21.10;45.20;;;;;;5116649;27;43405;-58
2022/12/13 10:56:21;;;;;;;5.40;4.90;;;21.10;45.30;;;;;;5107351;27;43795;-58
2022/12/13 10:59:23;;;;;;;6.00;5.28;;;21.10;45.30;;;;;;5104544;27;43450;-58
2022/12/13 11:01:50;;;;;;;4.95;4.55;;;21.10;45.20;;;;;;5110620;27;43469;-58
2022/12/13 11:04:31;;;;;;;5.38;4.90;;;21.10;45.20;;;;;;5106230;27;43462;-58
2022/12/13 11:07:19;;;;;;;5.78;5.18;;;21.10;45.20;;;;;;5104443;27;43901;-58
2022/12/13 11:09:47;;;;;;;5.10;4.60;;;21.10;45.30;;;;;;5118109;27;43789;-58
2022/12/13 11:12:25;;;;;;;5.57;4.97;;;21.10;45.30;;;;;;5095949;27;43474;-58
2022/12/13 11:15:00;;;;;;;6.28;4.80;;;21.10;45.30;;;;;;5106367;27;43433;-58
2022/12/13 11:17:30;;;;;;;7.50;4.50;;;21.10;45.40;;;;;;5091031;27;43816;-58
2022/12/13 11:20:03;;;;;;;5.20;4.70;;;21.10;45.40;;;;;;5110402;27;44204;-59
2022/12/13 11:22:36;;;;;;;5.45;4.20;;;21.20;45.40;;;;;;5107971;27;43494;-58
2022/12/13 11:25:18;;;;;;;7.13;4.60;;;21.20;45.30;;;;;;5095844;27;43415;-58
2022/12/13 11:28:09;;;;;;;5.00;4.60;;;21.30;45.30;;;;;;5105533;27;44894;-58
2022/12/13 11:31:16;;;;;;;5.35;4.85;;;21.30;45.30;;;;;;5075203;27;43537;-58
2022/12/13 11:34:04;;;;;;;4.93;4.47;;;21.30;45.20;;;;;;5095833;27;43409;-58
2022/12/13 11:36:47;;;;;;;4.90;4.45;;;21.30;45.20;;;;;;5116128;27;43424;-58
2022/12/13 11:39:38;;;;;;;4.75;4.35;;;21.40;45.20;;;;;;5114329;27;44050;-58
2022/12/13 11:42:09;;;;;;;;;;;21.30;45.20;;;;;;5105847;27;43745;-59
2022/12/13 11:44:39;;;;;;;5.53;4.43;;;21.40;45.60;;;;;;5105218;27;43436;-59
2022/12/13 11:47:23;;;;;;;6.00;4.60;;;21.40;45.50;;;;;;5117790;27;44151;-59
2022/12/13 11:49:52;;;;;;;5.00;4.30;;;21.40;45.40;;;;;;5102327;27;43790;-59
2022/12/13 11:52:39;;;;;;;4.55;4.15;;;21.40;45.50;;;;;;5104278;27;43975;-59
2022/12/13 11:55:27;;;;;;;4.78;4.28;;;21.50;45.50;;;;;;5108755;27;43511;-59
2022/12/13 11:58:32;;;;;;;5.10;4.60;;;21.50;45.30;;;;;;5106821;27;43392;-59
2022/12/13 12:01:52;;;;;;;4.72;4.32;;;21.60;45.40;;;;;;5038422;28;43816;-59
2022/12/13 12:04:36;;;;;;;4.70;4.23;;;21.70;45.40;;;;;;5106275;27;43466;-59
2022/12/13 12:07:20;;;;;;;4.88;4.47;;;21.70;45.70;;;;;;5105574;27;43446;-59
2022/12/13 12:10:13;;;;;;;4.70;4.30;;;21.70;45.40;;;;;;5105936;27;43502;-59
2022/12/13 12:12:54;;;;;;;4.68;4.28;;;21.70;45.20;;;;;;5109692;27;44042;-59
2022/12/13 12:15:27;;;;;;;4.50;4.10;;;21.70;45.40;;;;;;5083847;27;43544;-59
2022/12/13 12:17:55;;;;;;;5.00;4.50;;;21.60;45.20;;;;;;5085158;27;43450;-60
2022/12/13 12:20:41;;;;;;;4.95;4.18;;;21.60;45.40;;;;;;5107994;27;43625;-59
2022/12/13 12:23:36;;;;;;;4.35;3.95;;;21.50;45.40;;;;;;5084926;27;45034;-60
2022/12/13 12:26:18;;;;;;;4.68;4.28;;;21.40;45.40;;;;;;5104239;27;43567;-59
2022/12/13 12:29:15;;;;;;;5.72;4.70;;;21.40;45.50;;;;;;5107398;27;43542;-59
2022/12/13 12:32:03;;;;;;;4.55;4.15;;;21.40;45.70;;;;;;5106923;27;43616;-59
2022/12/13 12:34:43;;;;;;;4.50;4.10;;;21.30;45.60;;;;;;5084606;27;43932;-59
2022/12/13 12:37:20;;;;;;;5.32;4.47;;;21.30;45.80;;;;;;5084233;27;43431;-59
2022/12/13 12:40:25;;;;;;;4.40;4.00;;;21.20;45.70;;;;;;5104541;27;43391;-59
2022/12/13 12:43:29;;;;;;;4.82;4.30;;;21.20;45.70;;;;;;5101498;27;43589;-59
2022/12/13 12:46:34;;;;;;;4.97;4.50;;;21.20;45.80;;;;;;5100414;27;43899;-59
2022/12/13 12:49:50;;;;;;;5.10;4.47;;;21.10;45.80;;;;;;5078584;27;44084;-59
2022/12/13 12:52:51;;;;;;;4.70;4.30;;;21.00;46.00;;;;;;5098199;27;43640;-59
2022/12/13 12:55:27;;;;;;;;;;;21.00;46.10;;;;;;5089094;27;43551;-59
2022/12/13 12:58:19;;;;;;;6.20;5.00;;;20.90;46.10;;;;;;5099268;27;43625;-59
2022/12/13 13:01:28;;;;;;;4.93;4.47;;;20.80;46.10;;;;;;5103678;27;43476;-59
2022/12/13 13:04:08;;;;;;;5.53;5.03;;;20.80;46.30;;;;;;5105845;27;43466;-59
2022/12/13 13:06:50;;;;;;;4.90;4.40;;;20.70;46.20;;;;;;5104940;27;43530;-59
2022/12/13 13:09:18;;;;;;;;;;;20.70;46.40;;;;;;5074768;27;43806;-59
2022/12/13 13:11:51;;;;;;;4.63;4.22;;;20.60;46.40;;;;;;5101598;27;43470;-60
2022/12/13 13:14:33;;;;;;;4.80;4.35;;;20.60;46.70;;;;;;5099409;27;43478;-59
2022/12/13 13:17:44;;;;;;;4.55;4.15;;;20.50;46.50;;;;;;5104797;27;43521;-59
2022/12/13 13:20:23;;;;;;;5.50;4.35;;;20.50;46.50;;;;;;5111160;27;44733;-59
2022/12/13 13:22:56;;;;;;;4.38;3.97;;;20.50;46.60;;;;;;5106909;27;43449;-59
2022/12/13 13:25:54;;;;;;;4.70;4.30;;;20.50;46.50;;;;;;5109201;27;43463;-59
2022/12/13 13:28:41;;;;;;;4.65;4.25;;;20.40;46.60;;;;;;5114523;27;43615;-59
2022/12/13 13:31:09;;;;;;;4.97;4.40;;;20.40;46.60;;;;;;5108418;27;44651;-59
2022/12/13 13:33:48;;;;;;;4.90;4.40;;;20.40;46.60;;;;;;5108903;27;43368;-60
2022/12/13 13:36:37;;;;;;;4.55;4.15;;;20.30;46.50;;;;;;5111714;27;43428;-59